Terminal Aerodrome Forecast
Issued by NWS

Home | Current Version | Previous Version | Text Only | Print | Product List | Glossary On
Versions: 1 2 3 4 5 6 7 8 9 10 11 12 13 14 15 16 17 18 19 20 21 22
000
FTUS45 KBOU 212339
TAFAPA
TAF
KAPA 212339Z 2200/2224 25010KT P6SM SCT100 BKN220
      TEMPO 2200/2203 VRB15G30KT
     FM220300 20009KT P6SM SCT110 BKN200
     FM221700 03012G20KT P6SM FEW080 SCT200
     FM222100 06014G22KT P6SM SCT080 BKN200 PROB30 2222/2224
      VRB15G30KT -TSRA BKN060CB=

USA.gov is the U.S. government's official web portal to all federal, state and local government web resources and services.